THY5GD LBSF-LTFM
Flight info
| Callsign | THY5GD |
|---|---|
| Flight time | N/A |
| Altitude | 33000 |
| Route | RUMEN N739 PDV P127 AYTEK |
| Aircraft | A21N/M-SDE2E3FGHIRWXY/LB1 |
Departure
| Time | 2026-05-03 21:24 |
|---|---|
| Airport | Sofia Airport (LBSF) |
Arrival
| Time | N/A |
|---|---|
| Airport | İstanbul Airport (LTFM) |
| Time | Latitude | Longitude | Altitude | Speed | Heading |
|---|---|---|---|---|---|
| 2026-05-03 21:04 | 42.69148 | 23.41267 | 1750 ft | 0 kts | 72° |
| 2026-05-03 21:11 | 42.69148 | 23.41265 | 1750 ft | 1 kts | 72° |
| 2026-05-03 21:12 | 42.69146 | 23.41260 | 1743 ft | 1 kts | 72° |
| 2026-05-03 21:12 | 42.69145 | 23.41253 | 1745 ft | 1 kts | 72° |
| 2026-05-03 21:12 | 42.69142 | 23.41243 | 1747 ft | 1 kts | 66° |
| 2026-05-03 21:12 | 42.69139 | 23.41232 | 1746 ft | 2 kts | 66° |
| 2026-05-03 21:13 | 42.69134 | 23.41217 | 1748 ft | 2 kts | 64° |
| 2026-05-03 21:13 | 42.69130 | 23.41208 | 1740 ft | 2 kts | 43° |
| 2026-05-03 21:13 | 42.69116 | 23.41198 | 1743 ft | 2 kts | 343° |
| 2026-05-03 21:13 | 42.69115 | 23.41199 | 1743 ft | 0 kts | 341° |
| 2026-05-03 21:15 | 42.69118 | 23.41197 | 1743 ft | 2 kts | 340° |
| 2026-05-03 21:15 | 42.69140 | 23.41185 | 1743 ft | 5 kts | 338° |
| 2026-05-03 21:15 | 42.69183 | 23.41163 | 1742 ft | 8 kts | 339° |
| 2026-05-03 21:15 | 42.69247 | 23.41151 | 1749 ft | 11 kts | 7° |
| 2026-05-03 21:16 | 42.69328 | 23.41175 | 1750 ft | 13 kts | 13° |
| 2026-05-03 21:16 | 42.69426 | 23.41204 | 1746 ft | 16 kts | 12° |
| 2026-05-03 21:16 | 42.69485 | 23.41296 | 1748 ft | 15 kts | 90° |
| 2026-05-03 21:16 | 42.69476 | 23.41445 | 1750 ft | 17 kts | 96° |
| 2026-05-03 21:17 | 42.69465 | 23.41616 | 1750 ft | 19 kts | 95° |
| 2026-05-03 21:17 | 42.69458 | 23.41741 | 1750 ft | 21 kts | 95° |
| 2026-05-03 21:17 | 42.69442 | 23.42019 | 1751 ft | 23 kts | 95° |
| 2026-05-03 21:17 | 42.69428 | 23.42249 | 1751 ft | 25 kts | 95° |
| 2026-05-03 21:18 | 42.69414 | 23.42495 | 1752 ft | 27 kts | 95° |
| 2026-05-03 21:18 | 42.69398 | 23.42753 | 1752 ft | 29 kts | 94° |
| 2026-05-03 21:18 | 42.69382 | 23.43033 | 1747 ft | 30 kts | 94° |
| 2026-05-03 21:18 | 42.69364 | 23.43319 | 1752 ft | 31 kts | 95° |
| 2026-05-03 21:19 | 42.69346 | 23.43621 | 1746 ft | 29 kts | 94° |
| 2026-05-03 21:19 | 42.69333 | 23.43886 | 1750 ft | 21 kts | 80° |
| 2026-05-03 21:19 | 42.69405 | 23.43947 | 1751 ft | 1 kts | 4° |
| 2026-05-03 21:22 | 42.69410 | 23.43948 | 1754 ft | 6 kts | 4° |
| 2026-05-03 21:22 | 42.69507 | 23.43926 | 1750 ft | 15 kts | 316° |
| 2026-05-03 21:22 | 42.69523 | 23.43815 | 1744 ft | 2 kts | 274° |
| 2026-05-03 21:22 | 42.69523 | 23.43806 | 1753 ft | 0 kts | 274° |
| 2026-05-03 21:23 | 42.69525 | 23.43778 | 1749 ft | 22 kts | 274° |
| 2026-05-03 21:23 | 42.69557 | 23.43234 | 1753 ft | 94 kts | 274° |
| 2026-05-03 21:23 | 42.69631 | 23.42036 | 1763 ft | 158 kts | 275° |
| 2026-05-03 21:23 | 42.69704 | 23.40445 | 2320 ft | 176 kts | 274° |
| 2026-05-03 21:24 | 42.69852 | 23.39284 | 2678 ft | 197 kts | 289° |
| 2026-05-03 21:24 | 42.70029 | 23.38707 | 2751 ft | 212 kts | 302° |
| 2026-05-03 21:24 | 42.72978 | 23.36855 | 4145 ft | 270 kts | 0° |
| 2026-05-03 21:24 | 42.74892 | 23.36979 | 5355 ft | 280 kts | 5° |
| 2026-05-03 21:25 | 42.76857 | 23.37169 | 6674 ft | 285 kts | 6° |
| 2026-05-03 21:25 | 42.78846 | 23.37341 | 7985 ft | 287 kts | 6° |
| 2026-05-03 21:25 | 42.80151 | 23.37519 | 8881 ft | 283 kts | 15° |
| 2026-05-03 21:25 | 42.81344 | 23.38169 | 9735 ft | 278 kts | 34° |
| 2026-05-03 21:26 | 42.83096 | 23.41762 | 11200 ft | 294 kts | 79° |
| 2026-05-03 21:26 | 42.82956 | 23.44636 | 11708 ft | 319 kts | 105° |
| 2026-05-03 21:26 | 42.82068 | 23.47513 | 12270 ft | 340 kts | 112° |
| 2026-05-03 21:26 | 42.81015 | 23.50486 | 12891 ft | 356 kts | 113° |
| 2026-05-03 21:27 | 42.79960 | 23.53605 | 13530 ft | 370 kts | 111° |
| 2026-05-03 21:27 | 42.79294 | 23.55768 | 13966 ft | 378 kts | 110° |
| 2026-05-03 21:27 | 42.77675 | 23.60101 | 15058 ft | 388 kts | 117° |
| 2026-05-03 21:27 | 42.76271 | 23.63216 | 15890 ft | 394 kts | 119° |
| 2026-05-03 21:28 | 42.74742 | 23.66341 | 16723 ft | 400 kts | 121° |
| 2026-05-03 21:28 | 42.73132 | 23.69460 | 17548 ft | 405 kts | 122° |
| 2026-05-03 21:28 | 42.71462 | 23.72588 | 18371 ft | 411 kts | 122° |
| 2026-05-03 21:28 | 42.69750 | 23.75730 | 19087 ft | 416 kts | 122° |
| 2026-05-03 21:29 | 42.67854 | 23.78738 | 19815 ft | 426 kts | 135° |
| 2026-05-03 21:29 | 42.65313 | 23.80924 | 20508 ft | 440 kts | 151° |
| 2026-05-03 21:29 | 42.62447 | 23.82462 | 21196 ft | 447 kts | 157° |
| 2026-05-03 21:29 | 42.59452 | 23.83757 | 21887 ft | 453 kts | 160° |
| 2026-05-03 21:30 | 42.56394 | 23.84919 | 22567 ft | 459 kts | 161° |
| 2026-05-03 21:30 | 42.53290 | 23.86054 | 23242 ft | 462 kts | 157° |
| 2026-05-03 21:30 | 42.50422 | 23.87936 | 23872 ft | 457 kts | 141° |
| 2026-05-03 21:30 | 42.48074 | 23.90774 | 24417 ft | 449 kts | 124° |
| 2026-05-03 21:31 | 42.46288 | 23.94226 | 24958 ft | 448 kts | 117° |
| 2026-05-03 21:31 | 42.45220 | 23.96615 | 25320 ft | 449 kts | 115° |
| 2026-05-03 21:31 | 42.43126 | 24.01549 | 26060 ft | 454 kts | 114° |
| 2026-05-03 21:31 | 42.41587 | 24.05247 | 26576 ft | 459 kts | 114° |
| 2026-05-03 21:32 | 42.40000 | 24.09057 | 27269 ft | 459 kts | 115° |
| 2026-05-03 21:32 | 42.38444 | 24.12756 | 28001 ft | 458 kts | 115° |
| 2026-05-03 21:32 | 42.36860 | 24.16490 | 28719 ft | 458 kts | 115° |
| 2026-05-03 21:32 | 42.35262 | 24.20223 | 29414 ft | 458 kts | 115° |
| 2026-05-03 21:33 | 42.33661 | 24.23940 | 30119 ft | 458 kts | 116° |
| 2026-05-03 21:33 | 42.32049 | 24.27655 | 30682 ft | 458 kts | 116° |
| 2026-05-03 21:33 | 42.30414 | 24.31357 | 31236 ft | 458 kts | 117° |
| 2026-05-03 21:33 | 42.28770 | 24.35039 | 31819 ft | 458 kts | 117° |
| 2026-05-03 21:34 | 42.27122 | 24.38717 | 32376 ft | 457 kts | 117° |
| 2026-05-03 21:34 | 42.25492 | 24.42348 | 32711 ft | 449 kts | 117° |
| 2026-05-03 21:34 | 42.23870 | 24.45965 | 32873 ft | 452 kts | 117° |
| 2026-05-03 21:34 | 42.22238 | 24.49618 | 32935 ft | 457 kts | 117° |
| 2026-05-03 21:35 | 42.19510 | 24.55729 | 32966 ft | 456 kts | 117° |
| 2026-05-03 21:35 | 42.15708 | 24.64249 | 32973 ft | 453 kts | 117° |
| 2026-05-03 21:36 | 42.12462 | 24.71538 | 32974 ft | 455 kts | 117° |
| 2026-05-03 21:36 | 42.09212 | 24.78839 | 32971 ft | 453 kts | 118° |
| 2026-05-03 21:37 | 42.06292 | 24.86290 | 32993 ft | 447 kts | 104° |
| 2026-05-03 21:37 | 42.04933 | 24.94396 | 32976 ft | 447 kts | 98° |
| 2026-05-03 21:38 | 42.03918 | 25.02631 | 32974 ft | 444 kts | 96° |
| 2026-05-03 21:38 | 42.03005 | 25.10854 | 32974 ft | 445 kts | 96° |
| 2026-05-03 21:39 | 42.02131 | 25.19119 | 32972 ft | 446 kts | 96° |
| 2026-05-03 21:39 | 42.01277 | 25.27368 | 32969 ft | 445 kts | 96° |
| 2026-05-03 21:40 | 42.00430 | 25.35614 | 32967 ft | 446 kts | 96° |
| 2026-05-03 21:40 | 41.99363 | 25.43841 | 32966 ft | 447 kts | 101° |
| 2026-05-03 21:41 | 41.97895 | 25.51925 | 32963 ft | 448 kts | 103° |
| 2026-05-03 21:41 | 41.96316 | 25.60022 | 32957 ft | 448 kts | 103° |
| 2026-05-03 21:42 | 41.94678 | 25.68118 | 32960 ft | 450 kts | 108° |
| 2026-05-03 21:42 | 41.92226 | 25.75687 | 32967 ft | 437 kts | 114° |
| 2026-05-03 21:43 | 41.89211 | 25.82810 | 32939 ft | 443 kts | 125° |
| 2026-05-03 21:43 | 41.87354 | 25.86104 | 32838 ft | 442 kts | 127° |
| 2026-05-03 21:43 | 41.85456 | 25.89331 | 32475 ft | 439 kts | 127° |
| 2026-05-03 21:44 | 41.83558 | 25.92508 | 31950 ft | 433 kts | 128° |
| 2026-05-03 21:44 | 41.81687 | 25.95629 | 31368 ft | 426 kts | 128° |
| 2026-05-03 21:44 | 41.79844 | 25.98705 | 30806 ft | 419 kts | 128° |
| 2026-05-03 21:44 | 41.78036 | 26.01734 | 30239 ft | 412 kts | 127° |
| 2026-05-03 21:45 | 41.76261 | 26.04717 | 29555 ft | 406 kts | 127° |
| 2026-05-03 21:45 | 41.74517 | 26.07664 | 28824 ft | 402 kts | 127° |
| 2026-05-03 21:45 | 41.72816 | 26.10554 | 28109 ft | 398 kts | 127° |
| 2026-05-03 21:45 | 41.71115 | 26.13454 | 27411 ft | 394 kts | 127° |
| 2026-05-03 21:46 | 41.69433 | 26.16330 | 26735 ft | 390 kts | 127° |
| 2026-05-03 21:46 | 41.67769 | 26.19181 | 26071 ft | 387 kts | 127° |
| 2026-05-03 21:46 | 41.66122 | 26.22008 | 25416 ft | 383 kts | 127° |
| 2026-05-03 21:46 | 41.64490 | 26.24810 | 24772 ft | 380 kts | 127° |
| 2026-05-03 21:47 | 41.62874 | 26.27588 | 24155 ft | 377 kts | 127° |
| 2026-05-03 21:47 | 41.61265 | 26.30354 | 23527 ft | 374 kts | 127° |
| 2026-05-03 21:47 | 41.59674 | 26.33088 | 22819 ft | 371 kts | 127° |
| 2026-05-03 21:47 | 41.58095 | 26.35801 | 22159 ft | 367 kts | 127° |
| 2026-05-03 21:48 | 41.56534 | 26.38485 | 21520 ft | 364 kts | 127° |
| 2026-05-03 21:48 | 41.54988 | 26.41141 | 20876 ft | 360 kts | 127° |
| 2026-05-03 21:48 | 41.53455 | 26.43776 | 20248 ft | 357 kts | 127° |
| 2026-05-03 21:48 | 41.51935 | 26.46388 | 19638 ft | 355 kts | 127° |
| 2026-05-03 21:49 | 41.50448 | 26.48941 | 19053 ft | 352 kts | 127° |
| 2026-05-03 21:49 | 41.48954 | 26.51506 | 18468 ft | 349 kts | 127° |
| 2026-05-03 21:49 | 41.47468 | 26.54053 | 17820 ft | 346 kts | 126° |
| 2026-05-03 21:49 | 41.45994 | 26.56578 | 17180 ft | 344 kts | 126° |
| 2026-05-03 21:50 | 41.44527 | 26.59086 | 16552 ft | 341 kts | 126° |
| 2026-05-03 21:50 | 41.43074 | 26.61570 | 15942 ft | 338 kts | 126° |
| 2026-05-03 21:50 | 41.41631 | 26.64039 | 15347 ft | 336 kts | 126° |
| 2026-05-03 21:50 | 41.40199 | 26.66488 | 14759 ft | 334 kts | 126° |
| 2026-05-03 21:51 | 41.39258 | 26.68097 | 14384 ft | 332 kts | 126° |
| 2026-05-03 21:51 | 41.37826 | 26.70547 | 14094 ft | 336 kts | 126° |
| 2026-05-03 21:51 | 41.36403 | 26.72977 | 13996 ft | 329 kts | 126° |
| 2026-05-03 21:51 | 41.34996 | 26.75380 | 13953 ft | 330 kts | 126° |
| 2026-05-03 21:52 | 41.33584 | 26.77788 | 13929 ft | 330 kts | 126° |
| 2026-05-03 21:52 | 41.31717 | 26.80966 | 13918 ft | 329 kts | 126° |
| 2026-05-03 21:52 | 41.30764 | 26.82588 | 13911 ft | 329 kts | 126° |
| 2026-05-03 21:52 | 41.29355 | 26.84984 | 13915 ft | 329 kts | 126° |
| 2026-05-03 21:53 | 41.27941 | 26.87385 | 13912 ft | 329 kts | 126° |
| 2026-05-03 21:53 | 41.26530 | 26.89778 | 13909 ft | 328 kts | 126° |
| 2026-05-03 21:53 | 41.25139 | 26.92136 | 13910 ft | 329 kts | 126° |
| 2026-05-03 21:53 | 41.23725 | 26.94528 | 13905 ft | 329 kts | 126° |
| 2026-05-03 21:54 | 41.22314 | 26.96915 | 13845 ft | 324 kts | 126° |
| 2026-05-03 21:54 | 41.21386 | 26.98482 | 13826 ft | 315 kts | 126° |
| 2026-05-03 21:54 | 41.19638 | 27.01423 | 13561 ft | 298 kts | 126° |
| 2026-05-03 21:54 | 41.18374 | 27.03549 | 13237 ft | 290 kts | 126° |
| 2026-05-03 21:55 | 41.17130 | 27.05643 | 12738 ft | 288 kts | 125° |
| 2026-05-03 21:55 | 41.15905 | 27.07704 | 12442 ft | 279 kts | 125° |
| 2026-05-03 21:55 | 41.14727 | 27.09684 | 12235 ft | 267 kts | 125° |
| 2026-05-03 21:55 | 41.13594 | 27.11591 | 11881 ft | 262 kts | 124° |
| 2026-05-03 21:56 | 41.12471 | 27.13485 | 11433 ft | 260 kts | 124° |
| 2026-05-03 21:56 | 41.11353 | 27.15368 | 10992 ft | 259 kts | 124° |
| 2026-05-03 21:56 | 41.10242 | 27.17239 | 10567 ft | 257 kts | 124° |
| 2026-05-03 21:56 | 41.09136 | 27.19100 | 10135 ft | 256 kts | 124° |
| 2026-05-03 21:57 | 41.08036 | 27.20951 | 9699 ft | 255 kts | 124° |
| 2026-05-03 21:57 | 41.06938 | 27.22787 | 9252 ft | 253 kts | 123° |
| 2026-05-03 21:57 | 41.05844 | 27.24613 | 8815 ft | 252 kts | 123° |
| 2026-05-03 21:57 | 41.04756 | 27.26426 | 8389 ft | 251 kts | 122° |
| 2026-05-03 21:58 | 41.03673 | 27.28231 | 7949 ft | 250 kts | 122° |
| 2026-05-03 21:58 | 41.02610 | 27.30003 | 7545 ft | 248 kts | 121° |
| 2026-05-03 21:58 | 41.01541 | 27.31789 | 7129 ft | 246 kts | 121° |
| 2026-05-03 21:58 | 41.00477 | 27.33567 | 6717 ft | 246 kts | 120° |
| 2026-05-03 21:59 | 40.99419 | 27.35339 | 6321 ft | 245 kts | 120° |
| 2026-05-03 21:59 | 40.98369 | 27.37104 | 5881 ft | 243 kts | 120° |
| 2026-05-03 21:59 | 40.97326 | 27.38862 | 5480 ft | 242 kts | 119° |
| 2026-05-03 21:59 | 40.96358 | 27.40651 | 5083 ft | 232 kts | 104° |
| 2026-05-03 22:00 | 40.96104 | 27.42623 | 4647 ft | 210 kts | 74° |
| 2026-05-03 22:00 | 40.96400 | 27.44492 | 4176 ft | 206 kts | 67° |
| 2026-05-03 22:00 | 40.96843 | 27.46288 | 3719 ft | 204 kts | 63° |
| 2026-05-03 22:00 | 40.97366 | 27.47997 | 3356 ft | 201 kts | 60° |
| 2026-05-03 22:01 | 40.97960 | 27.49707 | 3073 ft | 206 kts | 59° |
| 2026-05-03 22:01 | 40.98582 | 27.51381 | 2957 ft | 201 kts | 58° |
| 2026-05-03 22:01 | 40.99219 | 27.53033 | 2901 ft | 202 kts | 57° |
| 2026-05-03 22:01 | 40.99867 | 27.54680 | 2872 ft | 201 kts | 57° |
| 2026-05-03 22:02 | 41.00513 | 27.56316 | 2870 ft | 199 kts | 57° |
| 2026-05-03 22:02 | 41.01160 | 27.57944 | 2856 ft | 200 kts | 57° |
| 2026-05-03 22:02 | 41.01813 | 27.59581 | 2850 ft | 202 kts | 57° |
| 2026-05-03 22:02 | 41.02465 | 27.61234 | 2860 ft | 203 kts | 57° |
| 2026-05-03 22:03 | 41.03031 | 27.62944 | 2849 ft | 207 kts | 72° |
| 2026-05-03 22:03 | 41.03250 | 27.64833 | 2850 ft | 210 kts | 75° |
| 2026-05-03 22:03 | 41.03430 | 27.66733 | 2839 ft | 207 kts | 75° |
| 2026-05-03 22:03 | 41.03623 | 27.68632 | 2834 ft | 209 kts | 74° |
| 2026-05-03 22:04 | 41.03841 | 27.70529 | 2833 ft | 207 kts | 73° |
| 2026-05-03 22:04 | 41.04101 | 27.72416 | 2843 ft | 208 kts | 72° |
| 2026-05-03 22:04 | 41.04435 | 27.74261 | 2839 ft | 201 kts | 67° |
| 2026-05-03 22:04 | 41.04854 | 27.75913 | 2889 ft | 175 kts | 62° |
| 2026-05-03 22:05 | 41.05303 | 27.77319 | 2911 ft | 162 kts | 58° |
| 2026-05-03 22:05 | 41.05768 | 27.78672 | 2848 ft | 157 kts | 59° |
| 2026-05-03 22:05 | 41.06178 | 27.79940 | 2668 ft | 143 kts | 59° |
| 2026-05-03 22:05 | 41.06620 | 27.81071 | 2406 ft | 135 kts | 49° |
| 2026-05-03 22:06 | 41.07176 | 27.82022 | 2271 ft | 130 kts | 43° |
| 2026-05-03 22:06 | 41.07787 | 27.82929 | 2174 ft | 132 kts | 42° |
| 2026-05-03 22:06 | 41.08404 | 27.83828 | 2029 ft | 132 kts | 41° |
| 2026-05-03 22:06 | 41.09019 | 27.84723 | 1741 ft | 134 kts | 41° |
| 2026-05-03 22:07 | 41.09655 | 27.85623 | 1473 ft | 133 kts | 41° |
| 2026-05-03 22:07 | 41.10307 | 27.86530 | 1363 ft | 140 kts | 42° |
| 2026-05-03 22:07 | 41.10960 | 27.87486 | 1201 ft | 140 kts | 44° |
| 2026-05-03 22:07 | 41.11626 | 27.88491 | 986 ft | 147 kts | 45° |
| 2026-05-03 22:08 | 41.12291 | 27.89527 | 764 ft | 149 kts | 46° |
| 2026-05-03 22:08 | 41.12949 | 27.90561 | 576 ft | 144 kts | 45° |
| 2026-05-03 22:08 | 41.13606 | 27.91531 | 532 ft | 134 kts | 51° |
| 2026-05-03 22:08 | 41.14131 | 27.92354 | 542 ft | 81 kts | 49° |
| 2026-05-03 22:09 | 41.14395 | 27.92758 | 550 ft | 28 kts | 49° |
| 2026-05-03 22:09 | 41.14508 | 27.92928 | 551 ft | 21 kts | 50° |
| 2026-05-03 22:09 | 41.14615 | 27.93090 | 554 ft | 26 kts | 39° |
| 2026-05-03 22:10 | 41.14797 | 27.93089 | 531 ft | 17 kts | 252° |
| 2026-05-03 22:10 | 41.14698 | 27.92938 | 531 ft | 27 kts | 227° |
| 2026-05-03 22:10 | 41.14581 | 27.92754 | 530 ft | 29 kts | 230° |
| 2026-05-03 22:10 | 41.14480 | 27.92603 | 530 ft | 21 kts | 229° |
| 2026-05-03 22:11 | 41.14370 | 27.92431 | 529 ft | 27 kts | 229° |
| 2026-05-03 22:11 | 41.14243 | 27.92238 | 529 ft | 31 kts | 230° |
| 2026-05-03 22:11 | 41.14083 | 27.91991 | 528 ft | 36 kts | 229° |
| 2026-05-03 22:11 | 41.13955 | 27.91799 | 528 ft | 23 kts | 229° |
| 2026-05-03 22:12 | 41.13853 | 27.91636 | 528 ft | 23 kts | 225° |
| 2026-05-03 22:12 | 41.13750 | 27.91484 | 527 ft | 22 kts | 229° |
| 2026-05-03 22:12 | 41.13647 | 27.91326 | 527 ft | 23 kts | 230° |
| 2026-05-03 22:12 | 41.13541 | 27.91164 | 526 ft | 24 kts | 229° |
| 2026-05-03 22:13 | 41.13432 | 27.90997 | 526 ft | 24 kts | 229° |
| 2026-05-03 22:13 | 41.13319 | 27.90828 | 526 ft | 25 kts | 228° |
| 2026-05-03 22:13 | 41.13219 | 27.90673 | 525 ft | 21 kts | 229° |
| 2026-05-03 22:13 | 41.13121 | 27.90522 | 525 ft | 22 kts | 228° |
| 2026-05-03 22:14 | 41.13029 | 27.90467 | 523 ft | 13 kts | 145° |
| 2026-05-03 22:14 | 41.12950 | 27.90561 | 520 ft | 17 kts | 136° |
| 2026-05-03 22:14 | 41.12865 | 27.90658 | 524 ft | 15 kts | 140° |
| 2026-05-03 22:14 | 41.12784 | 27.90743 | 525 ft | 15 kts | 146° |
| 2026-05-03 22:15 | 41.12730 | 27.90805 | 525 ft | 0 kts | 137° |